ROMMA est une association bénévole à but non lucratif. Votre soutien est indispensable : ADHERER à ROMMA ou FAIRE un DON

Engins - (38, Isère)

Vercors (906 m)   Longitude: 05° 37' E   Latitude: 45° 11' N Station partenaire n°139
 

Détail journalier du     <<     >>

Température Precipitation Humidité Vent Dir Rafale Dir. rafale Ensol.
Heure (°C) (mm) (%) (km/h) (km/h) (min)
01:00 11.70.2913O6O0
02:00 11.40.8943O8SSO0
03:00 11.11944OSO18SSO0
04:00 11.20.4944S18SSE0
05:00 11.10952NNO10OSO0
06:00 11.10962O6SSE0
07:00 10.90953NO11S0
08:00 11.10.2963NO8SSO5
09:00 12.50923SSO11S20
10:00 14.00884S10SSO60
11:00 12.40952N10E5
12:00 12.30962ENE6ENE0
13:00 13.70941ENE8NNE15
14:00 14.10893NNE8N40
15:00 14.20902ENE6E5
16:00 13.30902SE6ENE0
17:00 12.40931OSO10OSO0
18:00 11.90934O10O0
19:00 11.30933O6O0
20:00 11.40924O10O0
21:00 11.20934SO11OSO0
22:00 11.20934SO11SSO0
23:00 11.20954SO11S0
minuit 11.20954OSO13SSO0

Graphique du 29-10-2019

 

Serveur OMMA